createdAt,value
2023-01-19T00:01:24.604Z,70.05
2023-01-19T15:59:53.326Z,10.98
2023-01-19T16:02:21.280Z,12.07
2023-01-19T16:04:49.929Z,5.10
2023-01-19T16:07:17.801Z,5.70
2023-01-19T16:09:45.705Z,6.03
2023-01-19T16:12:13.577Z,4.90
2023-01-19T16:14:41.518Z,4.65
2023-01-19T16:17:10.711Z,3.97
2023-01-19T16:19:38.574Z,2.55
2023-01-19T16:22:06.560Z,3.60
2023-01-19T16:24:34.429Z,2.60
2023-01-19T16:27:03.899Z,1.85
2023-01-19T16:29:32.107Z,1.48
2023-01-19T16:32:00.067Z,1.73
2023-01-19T16:34:29.431Z,1.95
2023-01-19T16:36:57.295Z,2.22
2023-01-19T16:39:25.249Z,2.03
2023-01-19T16:41:53.147Z,1.67
2023-01-19T16:44:21.025Z,1.73
2023-01-19T16:46:49.989Z,2.40
2023-01-19T16:49:19.607Z,1.33
2023-01-19T16:51:49.422Z,1.52
2023-01-19T16:54:20.146Z,2.45
2023-01-19T16:56:48.203Z,0.90
2023-01-19T16:59:17.734Z,2.63
2023-01-19T17:01:46.653Z,3.00
2023-01-19T17:04:15.128Z,2.47
2023-01-19T17:06:43.168Z,5.28
2023-01-19T17:09:12.422Z,1.63
2023-01-19T17:11:41.089Z,1.55
2023-01-19T17:14:12.807Z,3.45
2023-01-19T17:16:40.939Z,6.03
2023-01-19T17:19:09.703Z,4.90
2023-01-19T17:21:37.666Z,13.88
2023-01-19T17:24:06.004Z,4.80
2023-01-19T17:26:35.183Z,8.00
2023-01-19T17:29:04.829Z,7.57
2023-01-19T17:31:33.238Z,9.45
2023-01-19T17:34:01.299Z,6.88
2023-01-19T17:36:30.612Z,3.75
2023-01-19T17:39:00.445Z,5.75
2023-01-19T17:41:31.216Z,4.90
2023-01-19T17:44:01.780Z,3.15
2023-01-19T17:46:30.609Z,5.53
2023-01-19T17:49:00.512Z,7.13
2023-01-19T17:51:29.370Z,4.50
2023-01-19T17:53:57.818Z,4.43
2023-01-19T17:56:29.396Z,3.90
2023-01-19T17:58:57.929Z,3.78
2023-01-19T18:01:28.784Z,3.10
2023-01-19T18:03:57.580Z,5.63
2023-01-19T18:06:25.812Z,2.83
2023-01-19T18:08:54.036Z,3.00
2023-01-19T18:11:22.907Z,5.47
2023-01-19T18:13:52.133Z,3.15
2023-01-19T18:16:23.342Z,2.38
2023-01-19T18:18:53.570Z,6.85
2023-01-19T18:21:23.027Z,2.58
2023-01-19T18:23:51.727Z,2.38
2023-01-19T18:26:21.295Z,6.28
2023-01-19T18:28:50.205Z,7.68
2023-01-19T18:31:19.832Z,9.48
2023-01-19T18:33:48.532Z,14.15
2023-01-19T18:36:18.600Z,10.88
2023-01-19T18:38:46.820Z,14.13
2023-01-19T18:41:17.074Z,16.50
2023-01-19T18:43:46.567Z,15.82
2023-01-19T18:46:15.191Z,16.13
2023-01-19T18:48:43.197Z,21.05
2023-01-19T18:51:12.540Z,20.17
2023-01-19T18:53:42.064Z,20.90
2023-01-19T18:56:13.006Z,19.83
2023-01-19T18:58:41.464Z,21.00
2023-01-19T19:01:19.746Z,21.23
2023-01-19T19:03:48.078Z,25.80
2023-01-19T19:06:16.807Z,25.67
2023-01-19T19:08:45.989Z,27.52
2023-01-19T19:11:14.292Z,22.75
2023-01-19T19:13:42.364Z,23.10
2023-01-19T19:16:12.992Z,18.45
2023-01-19T19:18:41.169Z,21.50
2023-01-19T19:21:11.375Z,19.63
2023-01-19T19:23:39.639Z,17.75
2023-01-19T19:26:10.674Z,15.73
2023-01-19T19:28:39.563Z,18.98
2023-01-19T19:31:09.573Z,16.45
2023-01-19T19:33:40.294Z,17.63
2023-01-19T19:36:10.075Z,16.75
2023-01-19T19:38:39.338Z,17.83
2023-01-19T19:41:09.948Z,15.27
2023-01-19T19:43:38.372Z,15.10
2023-01-19T19:46:08.448Z,23.02
2023-01-19T19:48:39.001Z,23.02
2023-01-19T19:51:18.211Z,25.48
2023-01-19T19:53:49.073Z,22.40
2023-01-19T19:56:21.883Z,19.38
2023-01-19T19:58:50.197Z,23.85
2023-01-19T20:01:20.040Z,24.48
2023-01-19T20:03:48.148Z,30.20
2023-01-19T20:06:17.878Z,23.42
2023-01-19T20:08:45.785Z,28.70
2023-01-19T20:11:15.382Z,27.02
2023-01-19T20:13:47.481Z,41.72
2023-01-19T20:16:17.493Z,34.55
2023-01-19T20:18:50.790Z,26.48
2023-01-19T20:21:21.165Z,29.83
2023-01-19T20:23:50.582Z,36.58
2023-01-19T20:26:21.897Z,28.27
2023-01-19T20:28:51.127Z,31.10
2023-01-19T20:31:20.778Z,28.98
2023-01-19T20:33:50.395Z,30.17
2023-01-19T20:36:19.621Z,25.42
2023-01-19T20:38:47.506Z,29.40
2023-01-19T20:41:16.710Z,28.33
2023-01-19T20:43:44.541Z,25.75
2023-01-19T20:46:14.116Z,27.25
2023-01-19T20:48:42.001Z,29.10
2023-01-19T20:51:11.825Z,28.15
2023-01-19T20:53:41.354Z,29.15
2023-01-19T20:56:12.810Z,29.55
2023-01-19T20:58:41.066Z,31.00
2023-01-19T21:01:15.590Z,28.88
2023-01-19T21:03:43.720Z,37.33
2023-01-19T21:06:12.221Z,31.10
2023-01-19T21:08:40.475Z,28.80
2023-01-19T21:11:08.759Z,24.13
2023-01-19T21:13:37.065Z,23.02
2023-01-19T21:16:05.934Z,20.85
2023-01-19T21:18:35.187Z,24.27
2023-01-19T21:21:03.076Z,25.38
2023-01-19T21:23:30.913Z,24.88
2023-01-19T21:26:00.470Z,26.42
2023-01-19T21:28:29.177Z,25.67
2023-01-19T21:30:57.152Z,25.67
2023-01-19T21:33:25.228Z,25.08
2023-01-19T21:35:56.217Z,23.95
2023-01-19T21:38:26.698Z,22.05
2023-01-19T21:40:54.836Z,24.80
2023-01-19T21:43:23.257Z,24.15
2023-01-19T21:45:51.144Z,22.35
2023-01-19T21:48:19.655Z,28.73
2023-01-19T21:50:56.566Z,21.80
2023-01-19T21:53:25.781Z,26.42
2023-01-19T21:55:53.655Z,27.45
2023-01-19T21:58:23.605Z,29.55
2023-01-19T22:00:51.783Z,28.77
2023-01-19T22:03:19.794Z,33.28
2023-01-19T22:05:47.729Z,30.45
2023-01-19T22:08:15.622Z,27.92
2023-01-19T22:10:44.875Z,30.10
2023-01-19T22:13:12.756Z,33.45
2023-01-19T22:15:40.852Z,40.03
2023-01-19T22:18:08.737Z,32.28
2023-01-19T22:20:36.582Z,28.98
2023-01-19T22:23:04.492Z,31.33
2023-01-19T22:25:34.038Z,29.60
2023-01-19T22:28:03.263Z,31.08
2023-01-19T22:30:31.193Z,29.38
2023-01-19T22:32:59.187Z,30.02
2023-01-19T22:35:27.106Z,33.97
2023-01-19T22:37:55.018Z,31.60
2023-01-19T22:40:22.904Z,35.55
2023-01-19T22:42:50.840Z,32.80
2023-01-19T22:45:21.753Z,33.95
2023-01-19T22:47:49.600Z,38.58
2023-01-19T22:50:17.606Z,33.22
2023-01-19T22:52:45.453Z,35.72
2023-01-19T22:55:13.535Z,33.00
2023-01-19T22:57:41.498Z,30.25
2023-01-19T23:00:10.598Z,37.47
2023-01-19T23:02:39.905Z,35.65
2023-01-19T23:05:08.543Z,32.05
2023-01-19T23:07:36.400Z,33.13
2023-01-19T23:10:04.388Z,35.17
2023-01-19T23:12:32.261Z,39.80
2023-01-19T23:15:00.129Z,36.80
2023-01-19T23:17:28.065Z,34.80
2023-01-19T23:19:57.471Z,40.67
2023-01-19T23:22:25.337Z,46.05
2023-01-19T23:24:53.234Z,41.55
2023-01-19T23:27:21.136Z,45.03
2023-01-19T23:29:48.971Z,36.38
2023-01-19T23:32:16.836Z,56.15
2023-01-19T23:34:44.664Z,63.35
2023-01-19T23:37:13.864Z,62.92
2023-01-19T23:39:41.752Z,56.38
2023-01-19T23:42:09.767Z,57.65
2023-01-19T23:44:37.649Z,68.68
2023-01-19T23:47:05.555Z,65.40
2023-01-19T23:49:33.419Z,76.70
2023-01-19T23:52:01.275Z,66.35
2023-01-19T23:54:30.519Z,48.05
2023-01-19T23:56:58.419Z,43.05
2023-01-19T23:59:26.321Z,42.20
